Time;durP1;ratioP1;P1;durP2;ratioP2;P2;SDS_P1;SDS_P2;PMS_P1;PMS_P2;Temp;Humidity;BMP_temperature;BMP_pressure;BME280_temperature;BME280_humidity;BME280_pressure;Samples;Min_cycle;Max_cycle;Signal;HPM_P1;HPM_P2
2022/11/17 00:01:21;;;;;;;;;;;;;;;7.14;100.00;98604.06;5049391;28;19921;-77
2022/11/17 00:03:47;;;;;;;;;;;;;;;7.13;100.00;98597.75;5036095;28;19927;-77
2022/11/17 00:06:12;;;;;;;;;;;;;;;7.09;100.00;98590.84;5050680;28;19920;-77
2022/11/17 00:08:37;;;;;;;;;;;;;;;7.11;100.00;98588.41;5033894;28;19925;-93
2022/11/17 00:11:03;;;;;;;;;;;;;;;7.07;100.00;98579.50;5029217;28;19928;-94
2022/11/17 00:16:13;;;;;;;;;;;;;;;7.01;100.00;98595.81;5031108;28;19921;-95
2022/11/17 00:21:25;;;;;;;;;;;;;;;6.95;100.00;98583.84;5037955;28;19960;-94
2022/11/17 00:23:51;;;;;;;;;;;;;;;6.88;100.00;98592.34;5043453;28;20378;-93
2022/11/17 00:26:22;;;;;;;;;;;;;;;6.87;100.00;98593.59;5032404;28;19921;-96
2022/11/17 00:28:52;;;;;;;;;;;;;;;6.81;100.00;98593.38;5031543;28;19925;-77
2022/11/17 00:34:04;;;;;;;;;;;;;;;6.85;100.00;98612.53;5037422;28;19921;-77
2022/11/17 00:36:30;;;;;;;;;;;;;;;6.81;100.00;98609.13;5032045;28;20371;-77
2022/11/17 00:38:55;;;;;;;;;;;;;;;6.81;100.00;98609.13;5022413;28;19929;-77
2022/11/17 00:41:20;;;;;;;;;;;;;;;6.80;100.00;98613.88;5040483;28;20285;-77
2022/11/17 00:43:46;;;;;;;;;;;;;;;6.80;100.00;98615.84;5037935;28;20370;-77
2022/11/17 00:46:11;;;;;;;;;;;;;;;6.73;100.00;98625.16;5030332;28;20436;-77
2022/11/17 00:48:37;;;;;;;;;;;;;;;6.71;100.00;98611.06;5030731;28;19928;-77
2022/11/17 00:51:03;;;;;;;;;;;;;;;6.70;100.00;98608.75;5038404;28;20024;-77
2022/11/17 00:53:28;;;;;;;;;;;;;;;6.72;100.00;98606.28;5031136;28;19968;-77
2022/11/17 00:55:54;;;;;;;;;;;;;;;6.73;100.00;98607.84;5013092;28;19925;-77
2022/11/17 00:58:19;;;;;;;;;;;;;;;6.71;100.00;98613.81;5030406;28;19960;-77
2022/11/17 01:00:44;;;;;;;;;;;;;;;6.68;100.00;98606.41;5035735;28;19993;-77
2022/11/17 01:03:10;;;;;;;;;;;;;;;6.57;100.00;98611.53;5029256;28;20043;-77
2022/11/17 01:05:35;;;;;;;;;;;;;;;6.47;100.00;98596.88;5029728;28;19957;-94
2022/11/17 01:08:00;;;;;;;;;;;;;;;6.48;100.00;98600.41;5030789;28;19973;-94
2022/11/17 01:10:26;;;;;;;;;;;;;;;6.47;100.00;98599.63;5031424;28;20302;-94
2022/11/17 01:12:51;;;;;;;;;;;;;;;6.40;100.00;98583.34;5048008;28;20007;-94
2022/11/17 01:15:17;;;;;;;;;;;;;;;6.34;100.00;98593.41;5044614;28;19944;-93
2022/11/17 01:17:42;;;;;;;;;;;;;;;6.29;100.00;98591.19;5032778;28;19921;-95
2022/11/17 01:20:07;;;;;;;;;;;;;;;6.20;100.00;98571.81;5050835;28;20371;-94
2022/11/17 01:22:33;;;;;;;;;;;;;;;6.15;100.00;98585.38;5036444;28;20417;-94
2022/11/17 01:24:58;;;;;;;;;;;;;;;6.14;100.00;98597.59;5047723;28;20441;-77
2022/11/17 01:27:23;;;;;;;;;;;;;;;6.07;100.00;98609.59;5039165;28;20408;-77
2022/11/17 01:29:49;;;;;;;;;;;;;;;6.02;100.00;98610.16;5045097;28;19929;-77
2022/11/17 01:32:14;;;;;;;;;;;;;;;5.98;100.00;98606.75;5049382;28;19968;-77
2022/11/17 01:34:40;;;;;;;;;;;;;;;5.94;100.00;98606.88;5050784;28;19982;-77
2022/11/17 01:37:20;;;;;;;;;;;;;;;5.91;100.00;98590.44;5052216;28;19931;-77
2022/11/17 01:39:49;;;;;;;;;;;;;;;5.91;100.00;98579.44;5050257;28;19960;-77
2022/11/17 01:42:14;;;;;;;;;;;;;;;5.88;100.00;98574.81;5040873;28;20394;-93
2022/11/17 01:44:47;;;;;;;;;;;;;;;5.82;100.00;98588.34;5033471;28;19922;-77
2022/11/17 01:47:17;;;;;;;;;;;;;;;5.71;100.00;98587.09;5032514;28;19952;-77
2022/11/17 01:49:42;;;;;;;;;;;;;;;5.64;100.00;98580.63;5035046;28;19964;-77
2022/11/17 01:52:07;;;;;;;;;;;;;;;5.66;100.00;98582.16;5020181;28;19962;-77
2022/11/17 01:54:33;;;;;;;;;;;;;;;5.60;100.00;98560.69;5029415;28;20357;-76
2022/11/17 01:57:01;;;;;;;;;;;;;;;5.63;100.00;98565.31;5024709;28;19921;-77
2022/11/17 01:59:27;;;;;;;;;;;;;;;5.52;100.00;98551.13;5032091;28;20333;-77
2022/11/17 02:01:58;;;;;;;;;;;;;;;5.52;100.00;98545.63;5286544;22;19925;-77
2022/11/17 02:04:27;;;;;;;;;;;;;;;5.46;100.00;98547.34;4992227;28;19951;-77
2022/11/17 02:06:55;;;;;;;;;;;;;;;5.42;100.00;98546.69;4998946;28;19921;-77
2022/11/17 02:09:20;;;;;;;;;;;;;;;5.37;100.00;98544.50;5015696;28;19921;-77
2022/11/17 02:11:45;;;;;;;;;;;;;;;5.35;100.00;98546.13;4995905;28;19941;-77
2022/11/17 02:14:11;;;;;;;;;;;;;;;5.31;100.00;98545.47;4992958;28;19922;-77
2022/11/17 02:16:36;;;;;;;;;;;;;;;5.27;100.00;98534.56;5031036;28;19921;-77
2022/11/17 02:19:02;;;;;;;;;;;;;;;5.22;100.00;98531.63;5015613;28;19925;-77
2022/11/17 02:21:46;;;;;;;;;;;;;;;5.18;100.00;98537.19;4996058;28;19957;-77
2022/11/17 02:24:11;;;;;;;;;;;;;;;5.18;100.00;98531.69;5022708;28;19922;-78
2022/11/17 02:26:43;;;;;;;;;;;;;;;5.07;100.00;98555.97;5031068;28;19921;-78
2022/11/17 02:29:11;;;;;;;;;;;;;;;5.02;100.00;98551.78;5009440;28;20024;-78
2022/11/17 02:31:37;;;;;;;;;;;;;;;5.02;100.00;98546.28;5011296;28;19928;-78
2022/11/17 02:34:08;;;;;;;;;;;;;;;4.96;100.00;98537.03;5009019;28;19921;-78
2022/11/17 02:36:39;;;;;;;;;;;;;;;4.95;100.00;98532.75;4993827;28;20298;-78
2022/11/17 02:39:11;;;;;;;;;;;;;;;4.98;100.00;98528.34;5027265;28;20429;-81
2022/11/17 02:41:49;;;;;;;;;;;;;;;4.94;100.00;98528.44;5024396;28;20374;-80
2022/11/17 02:44:25;;;;;;;;;;;;;;;4.86;100.00;98532.59;4995743;28;19929;-80
2022/11/17 02:46:54;;;;;;;;;;;;;;;4.84;100.00;98539.75;4985238;28;20341;-80
2022/11/17 02:49:21;;;;;;;;;;;;;;;4.78;100.00;98535.97;4994667;28;19929;-80
2022/11/17 02:51:47;;;;;;;;;;;;;;;4.72;100.00;98545.97;4997157;28;19921;-80
2022/11/17 02:54:12;;;;;;;;;;;;;;;4.65;100.00;98522.97;5000119;28;20393;-80
2022/11/17 02:56:41;;;;;;;;;;;;;;;4.60;100.00;98520.78;5009595;28;20008;-80
2022/11/17 02:59:07;;;;;;;;;;;;;;;4.57;100.00;98523.63;5006869;28;19921;-80
2022/11/17 03:01:50;;;;;;;;;;;;;;;4.52;100.00;98519.41;5022485;28;19928;-81
2022/11/17 03:04:30;;;;;;;;;;;;;;;4.48;100.00;98524.25;4998395;28;20008;-80
2022/11/17 03:06:55;;;;;;;;;;;;;;;4.42;100.00;98523.19;4994022;28;19929;-80
2022/11/17 03:09:23;;;;;;;;;;;;;;;4.42;100.00;98530.66;5007392;28;19932;-80
2022/11/17 03:11:49;;;;;;;;;;;;;;;4.38;100.00;98522.53;5015973;28;19921;-80
2022/11/17 03:14:14;;;;;;;;;;;;;;;4.34;100.00;98530.09;5020133;28;19927;-80
2022/11/17 03:16:42;;;;;;;;;;;;;;;4.34;100.00;98535.56;5030698;28;20289;-78
2022/11/17 03:19:20;;;;;;;;;;;;;;;4.32;100.00;98531.72;5028699;28;20294;-77
2022/11/17 03:21:55;;;;;;;;;;;;;;;4.32;100.00;98526.25;4996126;28;20319;-77
2022/11/17 03:24:22;;;;;;;;;;;;;;;4.30;100.00;98540.38;5008852;28;19992;-78
2022/11/17 03:26:55;;;;;;;;;;;;;;;4.30;100.00;98545.09;4997519;28;20657;-78
2022/11/17 03:29:21;;;;;;;;;;;;;;;4.27;100.00;98545.97;5027287;28;20427;-78
2022/11/17 03:31:47;;;;;;;;;;;;;;;4.23;100.00;98546.06;5007999;28;19925;-78
2022/11/17 03:34:14;;;;;;;;;;;;;;;4.18;100.00;98543.81;5030715;28;19928;-78
2022/11/17 03:36:40;;;;;;;;;;;;;;;4.16;100.00;98543.50;5013657;28;20293;-78
2022/11/17 03:39:08;;;;;;;;;;;;;;;4.15;100.00;98544.69;4995772;28;20009;-77
2022/11/17 03:41:34;;;;;;;;;;;;;;;4.11;100.00;98533.81;5007564;28;19967;-78
2022/11/17 03:43:59;;;;;;;;;;;;;;;4.01;100.00;98525.81;4997405;28;19922;-77
2022/11/17 03:46:24;;;;;;;;;;;;;;;3.98;100.00;98532.16;5027012;28;20365;-78
2022/11/17 03:48:54;;;;;;;;;;;;;;;3.94;100.00;98540.50;4994677;28;19971;-78
2022/11/17 03:51:21;;;;;;;;;;;;;;;3.93;100.00;98543.66;4994861;28;19922;-78
2022/11/17 03:53:46;;;;;;;;;;;;;;;3.93;100.00;98554.63;5009291;28;20021;-80
2022/11/17 03:56:14;;;;;;;;;;;;;;;3.84;100.00;98551.72;4988712;28;20032;-78
2022/11/17 03:58:51;;;;;;;;;;;;;;;3.83;100.00;98553.69;5016697;28;20209;-77
2022/11/17 04:01:16;;;;;;;;;;;;;;;3.83;100.00;98550.19;5006489;28;20399;-77
2022/11/17 04:03:41;;;;;;;;;;;;;;;3.84;100.00;98548.97;5007692;28;19957;-77
2022/11/17 04:06:07;;;;;;;;;;;;;;;3.80;100.00;98551.03;5024216;28;19922;-78
2022/11/17 04:08:32;;;;;;;;;;;;;;;3.82;100.00;98543.13;5008592;28;19968;-78
2022/11/17 04:16:25;;;;;;;;;;;;;;;3.77;100.00;98544.41;5031641;28;19925;-80
2022/11/17 04:18:51;;;;;;;;;;;;;;;3.79;100.00;98539.28;5024588;28;19953;-80
2022/11/17 04:21:16;;;;;;;;;;;;;;;3.74;100.00;98548.78;5011877;28;20004;-80
2022/11/17 04:23:42;;;;;;;;;;;;;;;3.79;100.00;98544.00;4996155;28;19917;-80
2022/11/17 04:28:51;;;;;;;;;;;;;;;3.75;100.00;98553.09;5006784;28;20355;-80
2022/11/17 04:31:24;;;;;;;;;;;;;;;3.73;100.00;98552.72;5011790;28;19928;-80
2022/11/17 04:33:50;;;;;;;;;;;;;;;3.75;100.00;98547.59;5026798;28;20314;-80
2022/11/17 04:36:17;;;;;;;;;;;;;;;3.78;100.00;98542.44;5029369;28;19921;-78
2022/11/17 04:38:43;;;;;;;;;;;;;;;3.80;100.00;98551.81;5015976;28;19941;-77
2022/11/17 04:43:52;;;;;;;;;;;;;;;3.73;100.00;98539.00;4999993;28;19924;-78
2022/11/17 04:46:18;;;;;;;;;;;;;;;3.75;100.00;98539.38;5006378;28;19917;-77
2022/11/17 04:48:44;;;;;;;;;;;;;;;3.74;100.00;98548.78;5030882;28;20142;-78
2022/11/17 04:51:10;;;;;;;;;;;;;;;3.72;100.00;98551.19;5039813;28;19925;-78
2022/11/17 04:53:35;;;;;;;;;;;;;;;3.66;100.00;98558.38;5033598;28;19968;-78
2022/11/17 04:56:01;;;;;;;;;;;;;;;3.57;100.00;98560.94;5003009;28;20003;-80
2022/11/17 04:58:26;;;;;;;;;;;;;;;3.53;100.00;98554.75;4994793;28;19949;-80
2022/11/17 05:00:51;;;;;;;;;;;;;;;3.56;100.00;98570.34;5005744;28;19928;-80
2022/11/17 05:03:17;;;;;;;;;;;;;;;3.58;100.00;98564.44;5018439;28;20382;-80
2022/11/17 05:05:46;;;;;;;;;;;;;;;3.55;100.00;98571.56;5010236;28;20280;-80
2022/11/17 05:08:11;;;;;;;;;;;;;;;3.55;100.00;98566.09;5026634;28;20329;-80
2022/11/17 05:13:23;;;;;;;;;;;;;;;3.42;100.00;98565.19;5015805;28;19925;-79
2022/11/17 05:18:33;;;;;;;;;;;;;;;3.17;100.00;98559.44;4996153;28;20290;-79
2022/11/17 05:21:02;;;;;;;;;;;;;;;3.12;100.00;98560.72;5001065;28;19996;-79
2022/11/17 05:26:12;;;;;;;;;;;;;;;2.97;100.00;98569.66;5022699;28;19921;-79
2022/11/17 05:28:37;;;;;;;;;;;;;;;2.96;100.00;98581.78;4995163;28;19930;-79
2022/11/17 05:31:02;;;;;;;;;;;;;;;2.97;100.00;98577.84;5018975;28;19922;-77
2022/11/17 05:33:28;;;;;;;;;;;;;;;2.83;100.00;98594.59;5019268;28;19996;-79
2022/11/17 05:35:53;;;;;;;;;;;;;;;2.79;100.00;98605.59;5017340;28;19927;-79
2022/11/17 05:38:18;;;;;;;;;;;;;;;2.81;100.00;98597.72;5016621;28;19968;-81
2022/11/17 05:40:43;;;;;;;;;;;;;;;2.82;100.00;98593.81;5022343;28;20024;-80
2022/11/17 05:43:09;;;;;;;;;;;;;;;2.75;100.00;98597.44;5016767;28;19976;-81
2022/11/17 05:45:34;;;;;;;;;;;;;;;2.73;100.00;98599.81;5022596;28;19964;-81
2022/11/17 05:48:00;;;;;;;;;;;;;;;2.69;100.00;98603.81;5017635;28;19925;-80
2022/11/17 05:50:25;;;;;;;;;;;;;;;2.63;100.00;98600.78;5011007;28;19925;-78
2022/11/17 05:52:50;;;;;;;;;;;;;;;2.66;100.00;98616.38;5002956;28;19929;-78
2022/11/17 05:55:16;;;;;;;;;;;;;;;2.65;100.00;98617.56;5014979;28;19925;-78
2022/11/17 05:57:41;;;;;;;;;;;;;;;2.64;100.00;98616.03;5009809;28;19925;-79
2022/11/17 06:00:07;;;;;;;;;;;;;;;2.57;100.00;98616.16;4990231;28;19936;-79
2022/11/17 06:02:43;;;;;;;;;;;;;;;2.47;100.00;98619.81;5013708;28;20023;-79
2022/11/17 06:05:08;;;;;;;;;;;;;;;2.41;100.00;98618.00;5022334;28;20295;-79
2022/11/17 06:07:34;;;;;;;;;;;;;;;2.28;100.00;98617.81;5031999;28;19928;-79
2022/11/17 06:09:59;;;;;;;;;;;;;;;2.21;100.00;98631.59;4993087;28;19922;-79
2022/11/17 06:12:25;;;;;;;;;;;;;;;2.20;100.00;98630.06;4979893;28;20016;-79
2022/11/17 06:14:50;;;;;;;;;;;;;;;2.21;100.00;98637.09;4996256;28;20444;-79
2022/11/17 06:17:16;;;;;;;;;;;;;;;2.17;100.00;98645.34;5002601;28;19921;-79
2022/11/17 06:19:43;;;;;;;;;;;;;;;2.06;100.00;98633.81;5003306;28;19983;-79
2022/11/17 06:22:08;;;;;;;;;;;;;;;2.01;100.00;98630.75;4995196;28;20013;-79
2022/11/17 06:24:33;;;;;;;;;;;;;;;2.10;100.00;98631.00;5026812;28;19925;-79
2022/11/17 06:26:59;;;;;;;;;;;;;;;2.11;100.00;98638.00;5032438;28;19928;-82
2022/11/17 06:29:24;;;;;;;;;;;;;;;2.14;100.00;98635.25;5013821;28;20003;-79
2022/11/17 06:31:49;;;;;;;;;;;;;;;2.18;100.00;98633.22;5013692;28;19921;-79
2022/11/17 06:34:15;;;;;;;;;;;;;;;2.25;100.00;98630.38;5030802;28;20011;-79
2022/11/17 06:36:40;;;;;;;;;;;;;;;2.27;100.00;98624.47;5003249;28;20455;-79
2022/11/17 06:39:06;;;;;;;;;;;;;;;2.28;100.00;98626.03;4992172;28;20020;-79
2022/11/17 06:41:31;;;;;;;;;;;;;;;2.35;100.00;98631.38;5024360;28;19921;-79
2022/11/17 06:43:56;;;;;;;;;;;;;;;2.42;100.00;98630.50;5030159;28;19917;-79
2022/11/17 06:46:22;;;;;;;;;;;;;;;2.46;100.00;98629.25;5028909;28;19929;-79
2022/11/17 06:48:47;;;;;;;;;;;;;;;2.46;100.00;98634.72;5010430;28;19924;-79
2022/11/17 06:51:12;;;;;;;;;;;;;;;2.45;100.00;98633.16;4992978;28;19925;-79
2022/11/17 06:53:38;;;;;;;;;;;;;;;2.56;100.00;98639.22;4993516;28;20008;-79
2022/11/17 06:58:29;;;;;;;;;;;;;;;2.63;100.00;98646.56;4993905;28;20035;-79
2022/11/17 07:00:59;;;;;;;;;;;;;;;2.74;100.00;98647.94;5011421;28;19918;-79
2022/11/17 07:03:25;;;;;;;;;;;;;;;2.71;100.00;98646.00;5014012;28;19929;-79
2022/11/17 07:05:50;;;;;;;;;;;;;;;2.68;100.00;98644.09;5002703;28;19925;-79
2022/11/17 07:08:17;;;;;;;;;;;;;;;2.67;100.00;98631.59;5031405;28;19927;-79
2022/11/17 07:10:43;;;;;;;;;;;;;;;2.61;100.00;98637.97;5028969;28;20008;-79
2022/11/17 07:13:08;;;;;;;;;;;;;;;2.56;100.00;98628.28;5032918;28;20323;-79
2022/11/17 07:15:34;;;;;;;;;;;;;;;2.62;100.00;98625.84;5030568;28;20462;-79
2022/11/17 07:17:59;;;;;;;;;;;;;;;2.66;100.00;98627.34;4993670;28;20396;-79
2022/11/17 07:20:24;;;;;;;;;;;;;;;2.73;100.00;98621.72;5032258;28;19920;-78
2022/11/17 07:22:50;;;;;;;;;;;;;;;2.85;100.00;98619.56;5046070;28;19917;-79
2022/11/17 07:25:15;;;;;;;;;;;;;;;2.93;100.00;98610.81;5049761;28;20024;-79
2022/11/17 07:27:43;;;;;;;;;;;;;;;2.90;100.00;98625.34;5046444;28;20390;-79
2022/11/17 07:30:08;;;;;;;;;;;;;;;2.86;100.00;98621.91;5012254;28;19929;-79
2022/11/17 07:32:35;;;;;;;;;;;;;;;2.90;100.00;98616.34;4992746;28;20027;-79
2022/11/17 07:35:04;;;;;;;;;;;;;;;2.98;100.00;98612.28;5011322;28;19981;-79
2022/11/17 07:37:32;;;;;;;;;;;;;;;3.03;100.00;98614.53;5012531;28;19921;-79
2022/11/17 07:39:58;;;;;;;;;;;;;;;2.97;100.00;98621.69;5032506;28;19925;-79
2022/11/17 07:42:23;;;;;;;;;;;;;;;2.90;100.00;98627.31;5014539;28;19921;-79
2022/11/17 07:44:52;;;;;;;;;;;;;;;2.96;100.00;98628.34;5014412;28;20365;-79
2022/11/17 07:47:17;;;;;;;;;;;;;;;3.00;100.00;98629.84;5032291;28;20016;-79
2022/11/17 07:49:42;;;;;;;;;;;;;;;3.11;100.00;98626.91;5032264;28;20366;-79
2022/11/17 07:52:08;;;;;;;;;;;;;;;3.14;100.00;98620.56;5003815;28;20449;-79
2022/11/17 07:54:33;;;;;;;;;;;;;;;3.22;100.00;98613.75;5011887;28;19929;-79
2022/11/17 07:56:58;;;;;;;;;;;;;;;3.31;100.00;98619.47;5012587;28;20272;-79
2022/11/17 07:59:24;;;;;;;;;;;;;;;3.32;100.00;98626.47;5011894;28;19922;-79
2022/11/17 08:01:49;;;;;;;;;;;;;;;3.41;100.00;98612.19;5012735;28;20366;-79
2022/11/17 08:04:14;;;;;;;;;;;;;;;3.43;100.00;98609.81;5032014;28;19944;-79
2022/11/17 08:06:40;;;;;;;;;;;;;;;3.30;100.00;98617.91;5031397;28;19925;-79
2022/11/17 08:09:09;;;;;;;;;;;;;;;3.39;100.00;98618.13;5031728;28;20004;-79
2022/11/17 08:11:34;;;;;;;;;;;;;;;3.49;100.00;98619.06;5031384;28;19925;-79
2022/11/17 08:14:02;;;;;;;;;;;;;;;3.62;100.00;98619.97;5031750;28;19943;-79
2022/11/17 08:16:29;;;;;;;;;;;;;;;3.79;100.00;98615.31;5031641;28;19921;-79
2022/11/17 08:18:56;;;;;;;;;;;;;;;3.85;100.00;98608.09;5031943;28;20397;-79
2022/11/17 08:21:21;;;;;;;;;;;;;;;3.87;100.00;98616.69;5030699;28;20008;-82
2022/11/17 08:23:51;;;;;;;;;;;;;;;3.87;100.00;98605.72;5013762;28;20501;-82
2022/11/17 08:26:17;;;;;;;;;;;;;;;3.80;100.00;98616.88;5031164;28;19929;-82
2022/11/17 08:28:42;;;;;;;;;;;;;;;3.93;100.00;98610.25;4996868;28;19955;-82
2022/11/17 08:31:07;;;;;;;;;;;;;;;3.92;100.00;98607.97;5031543;28;20040;-82
2022/11/17 08:33:33;;;;;;;;;;;;;;;4.06;100.00;98618.59;5030779;28;19965;-82
2022/11/17 08:35:59;;;;;;;;;;;;;;;4.18;100.00;98598.72;5031029;28;19924;-82
2022/11/17 08:38:30;;;;;;;;;;;;;;;4.26;100.00;98605.56;5030852;28;20023;-82
2022/11/17 08:40:56;;;;;;;;;;;;;;;4.25;100.00;98595.78;5031260;28;19929;-79
2022/11/17 08:43:21;;;;;;;;;;;;;;;4.44;100.00;98599.66;5013249;28;20496;-79
2022/11/17 08:45:47;;;;;;;;;;;;;;;4.47;100.00;98604.28;5031139;28;19917;-79
2022/11/17 08:48:12;;;;;;;;;;;;;;;4.46;100.00;98609.00;5031095;28;20398;-79
2022/11/17 08:50:38;;;;;;;;;;;;;;;4.50;100.00;98617.13;5030324;28;20291;-79
2022/11/17 08:53:03;;;;;;;;;;;;;;;4.59;100.00;98618.09;5030990;28;20356;-79
2022/11/17 08:55:28;;;;;;;;;;;;;;;4.72;100.00;98620.91;5012958;28;20526;-79
2022/11/17 08:57:54;;;;;;;;;;;;;;;4.77;100.00;98617.66;5030812;28;20306;-79
2022/11/17 09:00:20;;;;;;;;;;;;;;;4.80;100.00;98633.25;5013030;28;19913;-82
2022/11/17 09:02:46;;;;;;;;;;;;;;;4.82;100.00;98628.09;5030684;28;19971;-79
2022/11/17 09:05:11;;;;;;;;;;;;;;;4.85;100.00;98623.72;5012746;28;19956;-79
2022/11/17 09:07:37;;;;;;;;;;;;;;;4.70;100.00;98615.84;5012643;28;20007;-79
2022/11/17 09:10:03;;;;;;;;;;;;;;;4.82;100.00;98616.31;5030881;28;19974;-79
2022/11/17 09:12:28;;;;;;;;;;;;;;;4.89;100.00;98610.66;5012830;28;20028;-79
2022/11/17 09:14:54;;;;;;;;;;;;;;;4.83;100.00;98604.13;5013128;28;20284;-80
2022/11/17 09:17:19;;;;;;;;;;;;;;;4.85;100.00;98599.00;5030973;28;19921;-78
2022/11/17 09:19:44;;;;;;;;;;;;;;;4.92;100.00;98607.03;5030353;28;20318;-79
2022/11/17 09:22:10;;;;;;;;;;;;;;;4.92;100.00;98607.03;5030399;28;19975;-79
2022/11/17 09:24:35;;;;;;;;;;;;;;;4.94;100.00;98604.63;5012539;28;19984;-79
2022/11/17 09:27:03;;;;;;;;;;;;;;;5.08;100.00;98604.25;5030953;28;19928;-80
2022/11/17 09:29:29;;;;;;;;;;;;;;;5.23;100.00;98594.38;5013191;28;20369;-77
2022/11/17 09:31:55;;;;;;;;;;;;;;;5.29;100.00;98597.38;5013043;28;20008;-80
2022/11/17 09:34:20;;;;;;;;;;;;;;;5.39;100.00;98591.56;5030488;28;19921;-78
2022/11/17 09:36:47;;;;;;;;;;;;;;;5.44;100.00;98582.78;5012555;28;19917;-78
2022/11/17 09:39:13;;;;;;;;;;;;;;;5.53;100.00;98591.16;5033142;28;19929;-78
2022/11/17 09:41:39;;;;;;;;;;;;;;;5.69;100.00;98582.06;5034346;28;19921;-79
2022/11/17 09:44:04;;;;;;;;;;;;;;;5.86;100.00;98583.53;5032920;28;19921;-79
2022/11/17 09:46:35;;;;;;;;;;;;;;;5.75;100.00;98574.00;5034197;28;19967;-78
2022/11/17 09:49:10;;;;;;;;;;;;;;;5.79;100.00;98574.66;5034136;28;19921;-79
2022/11/17 09:51:36;;;;;;;;;;;;;;;5.76;100.00;98564.53;5033829;28;19921;-79
2022/11/17 09:54:17;;;;;;;;;;;;;;;5.90;100.00;98569.66;5034260;28;19917;-79
2022/11/17 09:56:43;;;;;;;;;;;;;;;5.95;100.00;98569.84;5034027;28;19932;-82
2022/11/17 09:59:10;;;;;;;;;;;;;;;5.98;100.00;98577.25;5033938;28;19921;-79
2022/11/17 10:01:36;;;;;;;;;;;;;;;6.03;100.00;98567.63;5033872;28;19921;-79
2022/11/17 10:04:01;;;;;;;;;;;;;;;6.07;100.00;98576.56;5023186;28;20400;-79
2022/11/17 10:06:30;;;;;;;;;;;;;;;6.11;100.00;98579.97;4996260;28;20351;-79
2022/11/17 10:08:57;;;;;;;;;;;;;;;6.14;100.00;98572.81;4996653;28;19952;-79
2022/11/17 10:11:32;;;;;;;;;;;;;;;6.19;100.00;98567.50;5016946;28;19928;-79
2022/11/17 10:14:17;;;;;;;;;;;;;;;6.19;100.00;98559.25;5035659;28;19921;-78
2022/11/17 10:16:51;;;;;;;;;;;;;;;6.25;100.00;98556.72;5035363;28;19971;-81
2022/11/17 10:19:21;;;;;;;;;;;;;;;6.24;100.00;98561.47;5035811;28;19920;-78
2022/11/17 10:21:48;;;;;;;;;;;;;;;6.17;100.00;98567.19;5053413;28;20008;-78
2022/11/17 10:24:31;;;;;;;;;;;;;;;6.16;100.00;98560.16;5035609;28;19920;-79
2022/11/17 10:26:58;;;;;;;;;;;;;;;6.12;100.00;98553.22;5053816;28;20015;-79
2022/11/17 10:29:23;;;;;;;;;;;;;;;6.08;100.00;98556.09;5053077;28;19920;-79
2022/11/17 10:31:48;;;;;;;;;;;;;;;6.14;100.00;98551.56;5035635;28;19921;-79
2022/11/17 10:34:33;;;;;;;;;;;;;;;6.14;100.00;98546.06;5053300;28;19927;-79
2022/11/17 10:37:09;;;;;;;;;;;;;;;6.19;100.00;98553.00;5035227;28;20306;-83
2022/11/17 10:39:36;;;;;;;;;;;;;;;6.28;100.00;98562.09;5017323;28;20366;-83
2022/11/17 10:42:15;;;;;;;;;;;;;;;6.40;100.00;98557.78;5033825;28;20333;-82
2022/11/17 10:44:40;;;;;;;;;;;;;;;6.40;100.00;98550.28;5032854;28;20726;-82
2022/11/17 10:47:08;;;;;;;;;;;;;;;6.47;100.00;98552.81;5033446;28;20447;-83
2022/11/17 10:49:34;;;;;;;;;;;;;;;6.61;100.00;98546.03;5015109;28;20019;-83
2022/11/17 10:52:03;;;;;;;;;;;;;;;6.59;100.00;98547.72;5033424;28;19963;-83
2022/11/17 10:54:28;;;;;;;;;;;;;;;6.61;100.00;98554.31;5050720;28;20413;-83
2022/11/17 10:56:54;;;;;;;;;;;;;;;6.60;100.00;98549.25;5051297;28;19949;-82
2022/11/17 10:59:23;;;;;;;;;;;;;;;6.63;100.00;98542.84;5015891;28;20004;-81
2022/11/17 11:01:49;;;;;;;;;;;;;;;6.66;100.00;98547.47;5016421;28;20015;-81
2022/11/17 11:04:34;;;;;;;;;;;;;;;6.52;100.00;98552.25;5012202;28;20009;-83
2022/11/17 11:07:08;;;;;;;;;;;;;;;6.45;100.00;98555.25;5031087;28;19921;-82
2022/11/17 11:09:35;;;;;;;;;;;;;;;6.44;100.00;98550.94;5013050;28;19928;-82
2022/11/17 11:12:00;;;;;;;;;;;;;;;6.49;100.00;98555.91;5030341;28;19917;-82
2022/11/17 11:14:29;;;;;;;;;;;;;;;6.57;100.00;98545.41;5051978;28;19983;-79
2022/11/17 11:16:55;;;;;;;;;;;;;;;6.56;100.00;98544.63;5052691;28;19924;-79
2022/11/17 11:19:20;;;;;;;;;;;;;;;6.51;100.00;98558.97;5052040;28;19920;-78
2022/11/17 11:21:52;;;;;;;;;;;;;;;6.65;100.00;98545.91;5052123;28;19929;-79
2022/11/17 11:24:28;;;;;;;;;;;;;;;6.72;100.00;98537.41;5034271;28;19927;-79
2022/11/17 11:27:08;;;;;;;;;;;;;;;6.76;100.00;98529.78;5034323;28;19925;-78
2022/11/17 11:29:45;;;;;;;;;;;;;;;6.81;100.00;98531.97;5017449;28;19925;-80
2022/11/17 11:32:23;;;;;;;;;;;;;;;6.83;100.00;98522.06;5052477;28;20011;-83
2022/11/17 11:34:48;;;;;;;;;;;;;;;7.00;100.00;98514.34;5051625;28;20413;-80
2022/11/17 11:37:14;;;;;;;;;;;;;;;7.09;100.00;98514.41;5052284;28;19960;-79
2022/11/17 11:39:42;;;;;;;;;;;;;;;7.18;100.00;98508.19;5051764;28;19956;-79
2022/11/17 11:42:18;;;;;;;;;;;;;;;7.18;100.00;98510.94;5051931;28;20007;-79
2022/11/17 11:44:48;;;;;;;;;;;;;;;7.21;100.00;98515.53;5051184;28;19947;-79
2022/11/17 11:47:18;;;;;;;;;;;;;;;7.27;100.00;98520.03;5034117;28;20020;-79
2022/11/17 11:49:44;;;;;;;;;;;;;;;7.20;100.00;98514.75;5033269;28;20081;-79
2022/11/17 11:52:11;;;;;;;;;;;;;;;7.25;100.00;98522.47;5017786;28;19917;-79
2022/11/17 11:54:55;;;;;;;;;;;;;;;7.32;100.00;98526.97;5033676;28;19920;-78
2022/11/17 11:57:23;;;;;;;;;;;;;;;7.29;100.00;98525.84;5051821;28;19916;-78
2022/11/17 11:59:49;;;;;;;;;;;;;;;7.25;100.00;98530.75;5051150;28;19917;-78
2022/11/17 12:02:47;;;;;;;;;;;;;;;7.30;100.00;98524.66;5029626;28;20024;-79
2022/11/17 12:05:18;;;;;;;;;;;;;;;7.36;100.00;98538.63;4997221;28;20024;-79
2022/11/17 12:07:46;;;;;;;;;;;;;;;7.33;100.00;98532.00;5031521;28;20262;-79
2022/11/17 12:10:12;;;;;;;;;;;;;;;7.38;100.00;98536.19;5014685;28;19979;-79
2022/11/17 12:12:37;;;;;;;;;;;;;;;7.45;100.00;98528.41;5051572;28;19924;-83
2022/11/17 12:15:12;;;;;;;;;;;;;;;7.54;100.00;98524.91;5033047;28;20414;-82
2022/11/17 12:17:51;;;;;;;;;;;;;;;7.62;100.00;98533.69;5050918;28;20292;-83
2022/11/17 12:20:29;;;;;;;;;;;;;;;7.70;100.00;98530.19;5016502;28;19920;-83
2022/11/17 12:23:07;;;;;;;;;;;;;;;7.63;100.00;98536.00;5051481;28;20382;-83
2022/11/17 12:25:33;;;;;;;;;;;;;;;7.65;100.00;98539.06;5032905;28;19920;-82
2022/11/17 12:27:58;;;;;;;;;;;;;;;7.70;100.00;98535.72;5033482;28;20341;-82
2022/11/17 12:30:33;;;;;;;;;;;;;;;7.69;100.00;98536.16;5016419;28;19991;-82
2022/11/17 12:32:59;;;;;;;;;;;;;;;7.71;100.00;98530.97;5051420;28;19971;-79
2022/11/17 12:35:31;;;;;;;;;;;;;;;7.66;100.00;98524.06;5032343;28;20335;-79
2022/11/17 12:38:18;;;;;;;;;;;;;;;7.64;100.00;98539.53;5051174;28;20305;-79
2022/11/17 12:40:50;;;;;;;;;;;;;;;7.73;100.00;98534.03;5050610;28;19968;-79
2022/11/17 12:43:16;;;;;;;;;;;;;;;7.78;100.00;98536.22;5033014;28;19920;-78
2022/11/17 12:45:50;;;;;;;;;;;;;;;7.90;100.00;98541.63;5032733;28;20290;-79
2022/11/17 12:48:16;;;;;;;;;;;;;;;7.98;100.00;98540.13;5051144;28;20003;-79
2022/11/17 12:50:44;;;;;;;;;;;;;;;7.97;100.00;98540.56;5032273;28;19916;-82
2022/11/17 12:53:13;;;;;;;;;;;;;;;7.90;100.00;98543.63;5016402;28;19975;-83
2022/11/17 12:55:57;;;;;;;;;;;;;;;7.83;100.00;98538.38;5050282;28;19999;-82
2022/11/17 12:58:28;;;;;;;;;;;;;;;7.73;100.00;98534.03;5032954;28;19966;-83
2022/11/17 13:00:58;;;;;;;;;;;;;;;7.67;100.00;98536.63;5050762;28;20092;-83
2022/11/17 13:03:33;;;;;;;;;;;;;;;7.71;100.00;98544.78;5019162;28;19925;-83
2022/11/17 13:06:06;;;;;;;;;;;;;;;7.64;100.00;98553.34;5012694;28;19921;-83
2022/11/17 13:08:32;;;;;;;;;;;;;;;7.73;100.00;98545.06;5030675;28;19974;-82
2022/11/17 13:11:05;;;;;;;;;;;;;;;7.70;100.00;98544.00;5037787;28;19925;-82
2022/11/17 13:13:30;;;;;;;;;;;;;;;7.67;100.00;98542.16;5034566;28;19931;-83
2022/11/17 13:15:57;;;;;;;;;;;;;;;7.63;100.00;98546.28;5036775;28;19916;-83
2022/11/17 13:18:32;;;;;;;;;;;;;;;7.67;100.00;98544.16;5036560;28;19924;-82
2022/11/17 13:20:57;;;;;;;;;;;;;;;7.65;100.00;98543.81;5054602;28;19921;-82